sensor_id;sensor_type;location;lat;lon;timestamp;temperature;humidity
7216;DHT22;3649;48.798;9.798;2022-11-27T00:01:20;7.10;99.90
7216;DHT22;3649;48.798;9.798;2022-11-27T00:03:48;7.10;99.90
7216;DHT22;3649;48.798;9.798;2022-11-27T00:06:18;7.80;99.90
7216;DHT22;3649;48.798;9.798;2022-11-27T00:08:46;7.20;99.90
7216;DHT22;3649;48.798;9.798;2022-11-27T00:11:16;7.20;99.90
7216;DHT22;3649;48.798;9.798;2022-11-27T00:13:43;7.10;99.90
7216;DHT22;3649;48.798;9.798;2022-11-27T00:16:11;7.10;99.90
7216;DHT22;3649;48.798;9.798;2022-11-27T00:18:39;7.00;99.90
7216;DHT22;3649;48.798;9.798;2022-11-27T00:21:30;7.10;99.90
7216;DHT22;3649;48.798;9.798;2022-11-27T00:23:58;7.10;99.90
7216;DHT22;3649;48.798;9.798;2022-11-27T00:26:26;7.30;99.90
7216;DHT22;3649;48.798;9.798;2022-11-27T00:29:00;7.10;99.90
7216;DHT22;3649;48.798;9.798;2022-11-27T00:31:29;7.10;99.90
7216;DHT22;3649;48.798;9.798;2022-11-27T00:34:02;7.10;99.90
7216;DHT22;3649;48.798;9.798;2022-11-27T00:36:30;7.00;99.90
7216;DHT22;3649;48.798;9.798;2022-11-27T00:38:58;7.00;99.90
7216;DHT22;3649;48.798;9.798;2022-11-27T00:41:27;7.00;99.90
7216;DHT22;3649;48.798;9.798;2022-11-27T00:43:54;6.90;99.90
7216;DHT22;3649;48.798;9.798;2022-11-27T00:46:24;6.90;99.90
7216;DHT22;3649;48.798;9.798;2022-11-27T00:48:56;6.90;99.90
7216;DHT22;3649;48.798;9.798;2022-11-27T00:51:23;6.90;99.90
7216;DHT22;3649;48.798;9.798;2022-11-27T00:53:51;6.90;99.90
7216;DHT22;3649;48.798;9.798;2022-11-27T00:56:20;6.90;99.90
7216;DHT22;3649;48.798;9.798;2022-11-27T00:58:48;6.80;99.90
7216;DHT22;3649;48.798;9.798;2022-11-27T01:01:21;6.80;99.90
7216;DHT22;3649;48.798;9.798;2022-11-27T01:03:49;6.80;99.90
7216;DHT22;3649;48.798;9.798;2022-11-27T01:06:17;6.80;99.90
7216;DHT22;3649;48.798;9.798;2022-11-27T01:08:44;6.80;99.90
7216;DHT22;3649;48.798;9.798;2022-11-27T01:11:19;6.90;99.90
7216;DHT22;3649;48.798;9.798;2022-11-27T01:13:47;6.80;99.90
7216;DHT22;3649;48.798;9.798;2022-11-27T01:16:16;6.90;99.90
7216;DHT22;3649;48.798;9.798;2022-11-27T01:18:45;6.80;99.90
7216;DHT22;3649;48.798;9.798;2022-11-27T01:21:15;6.90;99.90
7216;DHT22;3649;48.798;9.798;2022-11-27T01:23:42;6.80;99.90
7216;DHT22;3649;48.798;9.798;2022-11-27T01:26:10;6.70;99.90
7216;DHT22;3649;48.798;9.798;2022-11-27T01:28:38;6.70;99.90
7216;DHT22;3649;48.798;9.798;2022-11-27T01:31:10;6.60;99.90
7216;DHT22;3649;48.798;9.798;2022-11-27T01:33:38;6.60;99.90
7216;DHT22;3649;48.798;9.798;2022-11-27T01:36:06;6.60;99.90
7216;DHT22;3649;48.798;9.798;2022-11-27T01:38:34;6.60;99.90
7216;DHT22;3649;48.798;9.798;2022-11-27T01:41:13;6.50;99.90
7216;DHT22;3649;48.798;9.798;2022-11-27T01:43:53;6.50;99.90
7216;DHT22;3649;48.798;9.798;2022-11-27T01:46:36;6.50;99.90
7216;DHT22;3649;48.798;9.798;2022-11-27T01:51:41;6.40;99.90
7216;DHT22;3649;48.798;9.798;2022-11-27T01:54:11;6.50;99.90
7216;DHT22;3649;48.798;9.798;2022-11-27T01:56:40;6.50;99.90
7216;DHT22;3649;48.798;9.798;2022-11-27T01:59:07;6.50;99.90
7216;DHT22;3649;48.798;9.798;2022-11-27T02:01:34;6.60;99.90
7216;DHT22;3649;48.798;9.798;2022-11-27T02:04:01;6.60;99.90
7216;DHT22;3649;48.798;9.798;2022-11-27T02:06:28;6.60;99.90
7216;DHT22;3649;48.798;9.798;2022-11-27T02:08:55;6.60;99.90
7216;DHT22;3649;48.798;9.798;2022-11-27T02:11:50;6.60;99.90
7216;DHT22;3649;48.798;9.798;2022-11-27T02:14:29;6.70;99.90
7216;DHT22;3649;48.798;9.798;2022-11-27T02:22:10;6.70;99.90
7216;DHT22;3649;48.798;9.798;2022-11-27T02:30:26;6.60;99.90
7216;DHT22;3649;48.798;9.798;2022-11-27T02:32:58;6.50;99.90
7216;DHT22;3649;48.798;9.798;2022-11-27T02:36:06;6.60;99.90
7216;DHT22;3649;48.798;9.798;2022-11-27T02:38:30;6.60;99.90
7216;DHT22;3649;48.798;9.798;2022-11-27T02:41:05;6.60;99.90
7216;DHT22;3649;48.798;9.798;2022-11-27T02:43:36;6.60;99.90
7216;DHT22;3649;48.798;9.798;2022-11-27T02:46:05;6.70;99.90
7216;DHT22;3649;48.798;9.798;2022-11-27T02:48:37;6.60;99.90
7216;DHT22;3649;48.798;9.798;2022-11-27T02:51:05;6.50;99.90
7216;DHT22;3649;48.798;9.798;2022-11-27T02:53:37;6.60;99.90
7216;DHT22;3649;48.798;9.798;2022-11-27T02:56:07;6.60;99.90
7216;DHT22;3649;48.798;9.798;2022-11-27T02:58:36;6.60;99.90
7216;DHT22;3649;48.798;9.798;2022-11-27T03:01:05;6.60;99.90
7216;DHT22;3649;48.798;9.798;2022-11-27T03:03:35;6.60;99.90
7216;DHT22;3649;48.798;9.798;2022-11-27T03:06:09;6.60;99.90
7216;DHT22;3649;48.798;9.798;2022-11-27T03:08:48;6.50;99.90
7216;DHT22;3649;48.798;9.798;2022-11-27T03:11:16;6.50;99.90
7216;DHT22;3649;48.798;9.798;2022-11-27T03:13:47;6.60;99.90
7216;DHT22;3649;48.798;9.798;2022-11-27T03:16:42;6.60;99.90
7216;DHT22;3649;48.798;9.798;2022-11-27T03:21:58;6.60;99.90
7216;DHT22;3649;48.798;9.798;2022-11-27T03:24:27;6.60;99.90
7216;DHT22;3649;48.798;9.798;2022-11-27T03:26:57;6.60;99.90
7216;DHT22;3649;48.798;9.798;2022-11-27T03:29:46;6.60;99.90
7216;DHT22;3649;48.798;9.798;2022-11-27T03:32:14;6.60;99.90
7216;DHT22;3649;48.798;9.798;2022-11-27T03:34:42;6.50;99.90
7216;DHT22;3649;48.798;9.798;2022-11-27T03:37:10;6.50;99.90
7216;DHT22;3649;48.798;9.798;2022-11-27T03:39:37;7.60;99.90
7216;DHT22;3649;48.798;9.798;2022-11-27T03:53:19;6.40;99.90
7216;DHT22;3649;48.798;9.798;2022-11-27T04:01:36;6.50;99.90
7216;DHT22;3649;48.798;9.798;2022-11-27T04:04:05;6.50;99.90
7216;DHT22;3649;48.798;9.798;2022-11-27T04:06:32;6.60;99.90
7216;DHT22;3649;48.798;9.798;2022-11-27T04:08:59;6.60;99.90
7216;DHT22;3649;48.798;9.798;2022-11-27T04:11:25;6.60;99.90
7216;DHT22;3649;48.798;9.798;2022-11-27T04:13:52;6.90;99.90
7216;DHT22;3649;48.798;9.798;2022-11-27T04:16:20;6.60;99.90
7216;DHT22;3649;48.798;9.798;2022-11-27T04:18:47;6.60;99.90
7216;DHT22;3649;48.798;9.798;2022-11-27T04:21:13;6.60;99.90
7216;DHT22;3649;48.798;9.798;2022-11-27T04:23:42;6.60;99.90
7216;DHT22;3649;48.798;9.798;2022-11-27T04:26:10;6.60;99.90
7216;DHT22;3649;48.798;9.798;2022-11-27T04:28:37;6.60;99.90
7216;DHT22;3649;48.798;9.798;2022-11-27T04:31:04;6.60;99.90
7216;DHT22;3649;48.798;9.798;2022-11-27T04:33:31;6.60;99.90
7216;DHT22;3649;48.798;9.798;2022-11-27T04:35:57;6.50;99.90
7216;DHT22;3649;48.798;9.798;2022-11-27T04:38:24;6.40;99.90
7216;DHT22;3649;48.798;9.798;2022-11-27T04:40:52;6.50;99.90
7216;DHT22;3649;48.798;9.798;2022-11-27T04:43:21;6.60;99.90
7216;DHT22;3649;48.798;9.798;2022-11-27T04:45:48;6.20;99.90
7216;DHT22;3649;48.798;9.798;2022-11-27T04:48:15;6.30;99.90
7216;DHT22;3649;48.798;9.798;2022-11-27T04:50:42;6.30;99.90
7216;DHT22;3649;48.798;9.798;2022-11-27T04:53:09;6.20;99.90
7216;DHT22;3649;48.798;9.798;2022-11-27T04:55:35;6.40;99.90
7216;DHT22;3649;48.798;9.798;2022-11-27T04:58:02;6.30;99.90
7216;DHT22;3649;48.798;9.798;2022-11-27T05:00:29;6.40;99.90
7216;DHT22;3649;48.798;9.798;2022-11-27T05:02:56;6.40;99.90
7216;DHT22;3649;48.798;9.798;2022-11-27T05:05:23;6.40;99.90
7216;DHT22;3649;48.798;9.798;2022-11-27T05:07:50;6.40;99.90
7216;DHT22;3649;48.798;9.798;2022-11-27T05:10:17;6.40;99.90
7216;DHT22;3649;48.798;9.798;2022-11-27T05:12:45;6.40;99.90
7216;DHT22;3649;48.798;9.798;2022-11-27T05:15:13;6.40;99.90
7216;DHT22;3649;48.798;9.798;2022-11-27T05:17:40;5.10;99.90
7216;DHT22;3649;48.798;9.798;2022-11-27T05:20:07;6.30;99.90
7216;DHT22;3649;48.798;9.798;2022-11-27T05:22:34;6.30;99.90
7216;DHT22;3649;48.798;9.798;2022-11-27T05:25:01;6.20;99.90
7216;DHT22;3649;48.798;9.798;2022-11-27T05:27:28;6.30;99.90
7216;DHT22;3649;48.798;9.798;2022-11-27T05:29:54;6.40;99.90
7216;DHT22;3649;48.798;9.798;2022-11-27T05:32:21;6.40;99.90
7216;DHT22;3649;48.798;9.798;2022-11-27T05:34:48;6.30;99.90
7216;DHT22;3649;48.798;9.798;2022-11-27T05:37:15;6.30;99.90
7216;DHT22;3649;48.798;9.798;2022-11-27T05:39:45;6.30;99.90
7216;DHT22;3649;48.798;9.798;2022-11-27T05:42:12;6.30;99.90
7216;DHT22;3649;48.798;9.798;2022-11-27T05:44:39;6.20;99.90
7216;DHT22;3649;48.798;9.798;2022-11-27T05:47:06;6.20;99.90
7216;DHT22;3649;48.798;9.798;2022-11-27T05:49:33;6.20;99.90
7216;DHT22;3649;48.798;9.798;2022-11-27T05:52:00;6.10;99.90
7216;DHT22;3649;48.798;9.798;2022-11-27T05:54:27;6.20;99.90
7216;DHT22;3649;48.798;9.798;2022-11-27T05:56:54;6.20;99.90
7216;DHT22;3649;48.798;9.798;2022-11-27T05:59:21;6.20;99.90
7216;DHT22;3649;48.798;9.798;2022-11-27T06:01:48;6.30;99.90
7216;DHT22;3649;48.798;9.798;2022-11-27T06:04:15;6.20;99.90
7216;DHT22;3649;48.798;9.798;2022-11-27T06:06:42;6.20;99.90
7216;DHT22;3649;48.798;9.798;2022-11-27T06:09:09;6.20;99.90
7216;DHT22;3649;48.798;9.798;2022-11-27T06:11:39;6.20;99.90
7216;DHT22;3649;48.798;9.798;2022-11-27T06:14:07;7.70;99.90
7216;DHT22;3649;48.798;9.798;2022-11-27T06:16:35;6.20;99.90
7216;DHT22;3649;48.798;9.798;2022-11-27T06:19:02;6.10;99.90
7216;DHT22;3649;48.798;9.798;2022-11-27T06:21:29;6.20;99.90
7216;DHT22;3649;48.798;9.798;2022-11-27T06:23:56;6.20;99.90
7216;DHT22;3649;48.798;9.798;2022-11-27T06:26:25;6.20;99.90
7216;DHT22;3649;48.798;9.798;2022-11-27T06:28:53;6.20;99.90
7216;DHT22;3649;48.798;9.798;2022-11-27T06:31:24;6.20;99.90
7216;DHT22;3649;48.798;9.798;2022-11-27T06:33:53;6.20;99.90
7216;DHT22;3649;48.798;9.798;2022-11-27T06:36:22;6.20;99.90
7216;DHT22;3649;48.798;9.798;2022-11-27T06:38:49;7.90;99.90
7216;DHT22;3649;48.798;9.798;2022-11-27T06:41:19;6.20;99.90
7216;DHT22;3649;48.798;9.798;2022-11-27T06:43:46;6.30;99.90
7216;DHT22;3649;48.798;9.798;2022-11-27T06:46:16;6.00;99.90
7216;DHT22;3649;48.798;9.798;2022-11-27T06:48:44;6.10;99.90
7216;DHT22;3649;48.798;9.798;2022-11-27T06:51:15;6.10;99.90
7216;DHT22;3649;48.798;9.798;2022-11-27T06:53:43;6.10;99.90
7216;DHT22;3649;48.798;9.798;2022-11-27T06:56:12;6.10;99.90
7216;DHT22;3649;48.798;9.798;2022-11-27T06:58:40;6.10;99.90
7216;DHT22;3649;48.798;9.798;2022-11-27T07:01:10;6.20;99.90
7216;DHT22;3649;48.798;9.798;2022-11-27T07:03:38;6.50;99.90
7216;DHT22;3649;48.798;9.798;2022-11-27T07:06:07;6.20;99.90
7216;DHT22;3649;48.798;9.798;2022-11-27T07:08:35;6.10;99.90
7216;DHT22;3649;48.798;9.798;2022-11-27T07:11:11;6.10;99.90
7216;DHT22;3649;48.798;9.798;2022-11-27T07:13:38;6.10;99.90
7216;DHT22;3649;48.798;9.798;2022-11-27T07:16:08;6.10;99.90
7216;DHT22;3649;48.798;9.798;2022-11-27T07:18:41;6.10;99.90
7216;DHT22;3649;48.798;9.798;2022-11-27T07:21:08;6.20;99.90
7216;DHT22;3649;48.798;9.798;2022-11-27T07:23:36;7.00;99.90
7216;DHT22;3649;48.798;9.798;2022-11-27T07:26:11;6.10;99.90
7216;DHT22;3649;48.798;9.798;2022-11-27T07:28:38;6.10;99.90
7216;DHT22;3649;48.798;9.798;2022-11-27T07:31:05;6.10;99.90
7216;DHT22;3649;48.798;9.798;2022-11-27T07:33:32;6.10;99.90
7216;DHT22;3649;48.798;9.798;2022-11-27T07:36:09;6.10;99.90
7216;DHT22;3649;48.798;9.798;2022-11-27T07:38:36;6.20;99.90
7216;DHT22;3649;48.798;9.798;2022-11-27T07:41:04;6.20;99.90
7216;DHT22;3649;48.798;9.798;2022-11-27T07:43:32;6.30;99.90
7216;DHT22;3649;48.798;9.798;2022-11-27T07:46:11;6.40;99.90
7216;DHT22;3649;48.798;9.798;2022-11-27T07:48:39;6.40;99.90
7216;DHT22;3649;48.798;9.798;2022-11-27T07:51:07;6.50;99.90
7216;DHT22;3649;48.798;9.798;2022-11-27T07:53:35;6.60;99.90
7216;DHT22;3649;48.798;9.798;2022-11-27T07:56:11;6.70;99.90
7216;DHT22;3649;48.798;9.798;2022-11-27T07:58:38;6.60;99.90
7216;DHT22;3649;48.798;9.798;2022-11-27T08:01:07;6.60;99.90
7216;DHT22;3649;48.798;9.798;2022-11-27T08:03:35;7.80;99.90
7216;DHT22;3649;48.798;9.798;2022-11-27T08:06:03;6.80;99.90
7216;DHT22;3649;48.798;9.798;2022-11-27T08:08:29;6.80;99.90
7216;DHT22;3649;48.798;9.798;2022-11-27T08:10:56;6.90;99.90
7216;DHT22;3649;48.798;9.798;2022-11-27T08:13:23;6.90;99.90
7216;DHT22;3649;48.798;9.798;2022-11-27T08:15:50;7.00;99.90
7216;DHT22;3649;48.798;9.798;2022-11-27T08:18:17;7.00;99.90
7216;DHT22;3649;48.798;9.798;2022-11-27T08:20:43;8.00;99.90
7216;DHT22;3649;48.798;9.798;2022-11-27T08:23:10;7.00;99.90
7216;DHT22;3649;48.798;9.798;2022-11-27T08:25:37;6.90;99.90
7216;DHT22;3649;48.798;9.798;2022-11-27T08:28:04;6.90;99.90
7216;DHT22;3649;48.798;9.798;2022-11-27T08:30:31;6.90;99.90
7216;DHT22;3649;48.798;9.798;2022-11-27T08:32:58;7.00;99.90
7216;DHT22;3649;48.798;9.798;2022-11-27T08:35:24;6.90;99.90
7216;DHT22;3649;48.798;9.798;2022-11-27T08:37:51;7.00;99.90
7216;DHT22;3649;48.798;9.798;2022-11-27T08:40:18;7.00;99.90
7216;DHT22;3649;48.798;9.798;2022-11-27T08:42:45;7.20;99.90
7216;DHT22;3649;48.798;9.798;2022-11-27T08:45:12;7.20;99.90
7216;DHT22;3649;48.798;9.798;2022-11-27T08:47:39;7.20;99.90
7216;DHT22;3649;48.798;9.798;2022-11-27T08:50:06;7.30;99.90
7216;DHT22;3649;48.798;9.798;2022-11-27T08:52:33;7.30;99.90
7216;DHT22;3649;48.798;9.798;2022-11-27T08:55:00;7.30;99.90
7216;DHT22;3649;48.798;9.798;2022-11-27T08:57:27;7.50;99.90
7216;DHT22;3649;48.798;9.798;2022-11-27T08:59:54;7.50;99.90
7216;DHT22;3649;48.798;9.798;2022-11-27T09:02:20;7.60;99.90
7216;DHT22;3649;48.798;9.798;2022-11-27T09:04:47;7.60;99.90
7216;DHT22;3649;48.798;9.798;2022-11-27T09:07:14;7.60;99.90
7216;DHT22;3649;48.798;9.798;2022-11-27T09:09:42;7.50;99.90
7216;DHT22;3649;48.798;9.798;2022-11-27T09:12:09;7.60;99.90
7216;DHT22;3649;48.798;9.798;2022-11-27T09:14:36;7.60;99.90
7216;DHT22;3649;48.798;9.798;2022-11-27T09:17:03;7.60;99.90
7216;DHT22;3649;48.798;9.798;2022-11-27T09:19:30;9.10;99.90
7216;DHT22;3649;48.798;9.798;2022-11-27T09:21:57;7.70;99.90
7216;DHT22;3649;48.798;9.798;2022-11-27T09:24:25;7.70;99.90
7216;DHT22;3649;48.798;9.798;2022-11-27T09:26:51;7.60;99.90
7216;DHT22;3649;48.798;9.798;2022-11-27T09:29:18;7.60;99.90
7216;DHT22;3649;48.798;9.798;2022-11-27T09:31:45;7.70;99.90
7216;DHT22;3649;48.798;9.798;2022-11-27T09:34:12;7.70;99.90
7216;DHT22;3649;48.798;9.798;2022-11-27T09:36:40;7.70;99.90
7216;DHT22;3649;48.798;9.798;2022-11-27T09:39:07;7.70;99.90
7216;DHT22;3649;48.798;9.798;2022-11-27T09:44:23;7.90;99.90
7216;DHT22;3649;48.798;9.798;2022-11-27T09:46:53;8.00;99.90
7216;DHT22;3649;48.798;9.798;2022-11-27T09:49:49;8.00;99.90
7216;DHT22;3649;48.798;9.798;2022-11-27T09:57:40;8.10;99.90
7216;DHT22;3649;48.798;9.798;2022-11-27T10:00:18;8.20;99.90
7216;DHT22;3649;48.798;9.798;2022-11-27T10:02:45;8.30;99.90
7216;DHT22;3649;48.798;9.798;2022-11-27T10:05:23;8.40;99.90
7216;DHT22;3649;48.798;9.798;2022-11-27T10:08:07;8.40;99.90
7216;DHT22;3649;48.798;9.798;2022-11-27T10:10:58;8.40;99.90
7216;DHT22;3649;48.798;9.798;2022-11-27T10:18:54;8.60;99.90
7216;DHT22;3649;48.798;9.798;2022-11-27T10:24:22;8.80;99.90
7216;DHT22;3649;48.798;9.798;2022-11-27T10:26:57;8.80;99.90
7216;DHT22;3649;48.798;9.798;2022-11-27T10:32:30;8.90;99.90
7216;DHT22;3649;48.798;9.798;2022-11-27T10:35:19;9.40;99.90
7216;DHT22;3649;48.798;9.798;2022-11-27T10:37:58;9.10;99.90
7216;DHT22;3649;48.798;9.798;2022-11-27T10:43:24;9.10;99.90
7216;DHT22;3649;48.798;9.798;2022-11-27T10:46:01;9.10;99.90
7216;DHT22;3649;48.798;9.798;2022-11-27T10:48:32;9.30;99.90
7216;DHT22;3649;48.798;9.798;2022-11-27T10:50:59;9.30;99.90
7216;DHT22;3649;48.798;9.798;2022-11-27T10:53:28;9.60;99.90
7216;DHT22;3649;48.798;9.798;2022-11-27T10:56:10;10.20;99.90
7216;DHT22;3649;48.798;9.798;2022-11-27T10:59:00;9.60;99.90
7216;DHT22;3649;48.798;9.798;2022-11-27T11:01:49;9.80;99.90
7216;DHT22;3649;48.798;9.798;2022-11-27T11:04:27;9.80;99.90
7216;DHT22;3649;48.798;9.798;2022-11-27T11:07:25;9.80;99.90
7216;DHT22;3649;48.798;9.798;2022-11-27T11:09:53;9.80;99.90
7216;DHT22;3649;48.798;9.798;2022-11-27T11:12:22;10.10;99.90
7216;DHT22;3649;48.798;9.798;2022-11-27T11:14:59;10.80;99.90
7216;DHT22;3649;48.798;9.798;2022-11-27T11:17:30;9.90;99.90
7216;DHT22;3649;48.798;9.798;2022-11-27T11:22:48;11.30;99.90
7216;DHT22;3649;48.798;9.798;2022-11-27T11:25:19;10.00;99.90
7216;DHT22;3649;48.798;9.798;2022-11-27T11:27:48;10.00;99.90
7216;DHT22;3649;48.798;9.798;2022-11-27T11:30:22;10.10;99.90
7216;DHT22;3649;48.798;9.798;2022-11-27T11:32:49;10.00;99.90
7216;DHT22;3649;48.798;9.798;2022-11-27T11:37:51;10.00;99.90
7216;DHT22;3649;48.798;9.798;2022-11-27T11:40:55;10.10;99.90
7216;DHT22;3649;48.798;9.798;2022-11-27T11:43:29;10.20;99.90
7216;DHT22;3649;48.798;9.798;2022-11-27T11:48:55;10.30;99.90
7216;DHT22;3649;48.798;9.798;2022-11-27T11:57:38;10.40;99.90
7216;DHT22;3649;48.798;9.798;2022-11-27T12:00:15;10.40;99.90
7216;DHT22;3649;48.798;9.798;2022-11-27T12:03:05;10.50;99.90
7216;DHT22;3649;48.798;9.798;2022-11-27T12:08:44;10.60;99.90
7216;DHT22;3649;48.798;9.798;2022-11-27T12:11:25;10.60;99.90
7216;DHT22;3649;48.798;9.798;2022-11-27T12:31:31;10.70;99.90
7216;DHT22;3649;48.798;9.798;2022-11-27T12:37:10;10.90;99.90
7216;DHT22;3649;48.798;9.798;2022-11-27T12:39:54;10.90;99.90
7216;DHT22;3649;48.798;9.798;2022-11-27T12:45:24;10.80;99.90
7216;DHT22;3649;48.798;9.798;2022-11-27T12:50:42;10.80;99.90
7216;DHT22;3649;48.798;9.798;2022-11-27T12:53:24;10.80;99.90
7216;DHT22;3649;48.798;9.798;2022-11-27T12:58:54;10.80;99.90
7216;DHT22;3649;48.798;9.798;2022-11-27T13:01:26;10.90;99.90
7216;DHT22;3649;48.798;9.798;2022-11-27T13:06:58;10.90;99.90
7216;DHT22;3649;48.798;9.798;2022-11-27T13:12:38;11.00;99.90
7216;DHT22;3649;48.798;9.798;2022-11-27T13:20:40;10.90;99.90
7216;DHT22;3649;48.798;9.798;2022-11-27T13:23:07;10.90;99.90
7216;DHT22;3649;48.798;9.798;2022-11-27T13:25:43;10.90;99.90
7216;DHT22;3649;48.798;9.798;2022-11-27T13:28:36;10.90;99.90
7216;DHT22;3649;48.798;9.798;2022-11-27T13:31:07;11.10;99.90
7216;DHT22;3649;48.798;9.798;2022-11-27T13:33:41;11.00;99.90
7216;DHT22;3649;48.798;9.798;2022-11-27T13:36:24;11.10;99.90
7216;DHT22;3649;48.798;9.798;2022-11-27T13:38:59;12.20;99.90
7216;DHT22;3649;48.798;9.798;2022-11-27T13:41:36;11.00;99.90
7216;DHT22;3649;48.798;9.798;2022-11-27T13:44:22;11.00;99.90
7216;DHT22;3649;48.798;9.798;2022-11-27T13:46:52;11.00;99.90
7216;DHT22;3649;48.798;9.798;2022-11-27T13:49:27;11.00;99.90
7216;DHT22;3649;48.798;9.798;2022-11-27T13:52:22;11.00;99.90
7216;DHT22;3649;48.798;9.798;2022-11-27T13:54:55;11.00;99.90
7216;DHT22;3649;48.798;9.798;2022-11-27T13:57:25;11.20;99.90
7216;DHT22;3649;48.798;9.798;2022-11-27T14:00:06;11.00;99.90
7216;DHT22;3649;48.798;9.798;2022-11-27T14:02:50;11.00;99.90
7216;DHT22;3649;48.798;9.798;2022-11-27T14:05:20;11.00;99.90
7216;DHT22;3649;48.798;9.798;2022-11-27T14:07:49;10.90;99.90
7216;DHT22;3649;48.798;9.798;2022-11-27T14:10:20;11.20;99.90
7216;DHT22;3649;48.798;9.798;2022-11-27T14:13:02;11.10;99.90
7216;DHT22;3649;48.798;9.798;2022-11-27T14:15:32;11.00;99.90
7216;DHT22;3649;48.798;9.798;2022-11-27T14:18:15;10.90;99.90
7216;DHT22;3649;48.798;9.798;2022-11-27T14:20:51;11.10;99.90
7216;DHT22;3649;48.798;9.798;2022-11-27T14:23:31;10.90;99.90
7216;DHT22;3649;48.798;9.798;2022-11-27T14:28:47;10.80;99.90
7216;DHT22;3649;48.798;9.798;2022-11-27T14:33:48;10.80;99.90
7216;DHT22;3649;48.798;9.798;2022-11-27T14:36:35;10.90;99.90
7216;DHT22;3649;48.798;9.798;2022-11-27T14:39:03;10.90;99.90
7216;DHT22;3649;48.798;9.798;2022-11-27T14:41:30;10.90;99.90
7216;DHT22;3649;48.798;9.798;2022-11-27T14:44:05;10.80;99.90
7216;DHT22;3649;48.798;9.798;2022-11-27T14:46:34;10.80;99.90
7216;DHT22;3649;48.798;9.798;2022-11-27T14:49:02;10.90;99.90
7216;DHT22;3649;48.798;9.798;2022-11-27T14:51:34;10.70;99.90
7216;DHT22;3649;48.798;9.798;2022-11-27T14:56:42;10.70;99.90
7216;DHT22;3649;48.798;9.798;2022-11-27T14:59:16;10.70;99.90
7216;DHT22;3649;48.798;9.798;2022-11-27T15:01:44;11.00;99.90
7216;DHT22;3649;48.798;9.798;2022-11-27T15:04:28;10.60;99.90
7216;DHT22;3649;48.798;9.798;2022-11-27T15:07:02;12.00;99.90
7216;DHT22;3649;48.798;9.798;2022-11-27T15:09:31;10.70;99.90
7216;DHT22;3649;48.798;9.798;2022-11-27T15:12:02;10.60;99.90
7216;DHT22;3649;48.798;9.798;2022-11-27T15:14:29;10.70;99.90
7216;DHT22;3649;48.798;9.798;2022-11-27T15:16:56;10.60;99.90
7216;DHT22;3649;48.798;9.798;2022-11-27T15:19:35;10.50;99.90
7216;DHT22;3649;48.798;9.798;2022-11-27T15:22:03;10.50;99.90
7216;DHT22;3649;48.798;9.798;2022-11-27T15:24:33;10.50;99.90
7216;DHT22;3649;48.798;9.798;2022-11-27T15:29:43;11.60;99.90
7216;DHT22;3649;48.798;9.798;2022-11-27T15:32:17;10.40;99.90
7216;DHT22;3649;48.798;9.798;2022-11-27T15:34:50;10.40;99.90
7216;DHT22;3649;48.798;9.798;2022-11-27T15:37:25;10.40;99.90
7216;DHT22;3649;48.798;9.798;2022-11-27T15:39:57;10.40;99.90
7216;DHT22;3649;48.798;9.798;2022-11-27T15:42:24;10.40;99.90
7216;DHT22;3649;48.798;9.798;2022-11-27T15:44:54;10.40;99.90
7216;DHT22;3649;48.798;9.798;2022-11-27T15:47:32;10.30;99.90
7216;DHT22;3649;48.798;9.798;2022-11-27T15:50:00;8.50;99.90
7216;DHT22;3649;48.798;9.798;2022-11-27T15:52:27;10.30;99.90
7216;DHT22;3649;48.798;9.798;2022-11-27T15:54:54;10.30;99.90
7216;DHT22;3649;48.798;9.798;2022-11-27T15:57:23;10.90;99.90
7216;DHT22;3649;48.798;9.798;2022-11-27T15:59:51;10.30;99.90
7216;DHT22;3649;48.798;9.798;2022-11-27T16:02:18;10.20;99.90
7216;DHT22;3649;48.798;9.798;2022-11-27T16:04:45;11.00;99.90
7216;DHT22;3649;48.798;9.798;2022-11-27T16:07:13;10.10;99.90
7216;DHT22;3649;48.798;9.798;2022-11-27T16:09:40;10.30;99.90
7216;DHT22;3649;48.798;9.798;2022-11-27T16:12:06;10.20;99.90
7216;DHT22;3649;48.798;9.798;2022-11-27T16:14:33;10.10;99.90
7216;DHT22;3649;48.798;9.798;2022-11-27T16:17:00;10.10;99.90
7216;DHT22;3649;48.798;9.798;2022-11-27T16:19:27;10.70;99.90
7216;DHT22;3649;48.798;9.798;2022-11-27T16:21:55;10.20;99.90
7216;DHT22;3649;48.798;9.798;2022-11-27T16:24:22;10.00;99.90
7216;DHT22;3649;48.798;9.798;2022-11-27T16:26:49;10.00;99.90
7216;DHT22;3649;48.798;9.798;2022-11-27T16:29:16;10.00;99.90
7216;DHT22;3649;48.798;9.798;2022-11-27T16:31:42;10.20;99.90
7216;DHT22;3649;48.798;9.798;2022-11-27T16:34:09;10.00;99.90
7216;DHT22;3649;48.798;9.798;2022-11-27T16:36:39;10.20;99.90
7216;DHT22;3649;48.798;9.798;2022-11-27T16:39:06;9.90;99.90
7216;DHT22;3649;48.798;9.798;2022-11-27T16:41:33;9.90;99.90
7216;DHT22;3649;48.798;9.798;2022-11-27T16:44:00;9.90;99.90
7216;DHT22;3649;48.798;9.798;2022-11-27T16:46:29;9.90;99.90
7216;DHT22;3649;48.798;9.798;2022-11-27T16:48:57;9.90;99.90
7216;DHT22;3649;48.798;9.798;2022-11-27T16:51:27;9.90;99.90
7216;DHT22;3649;48.798;9.798;2022-11-27T16:53:56;9.90;99.90
7216;DHT22;3649;48.798;9.798;2022-11-27T16:56:26;9.90;99.90
7216;DHT22;3649;48.798;9.798;2022-11-27T16:58:54;9.90;99.90
7216;DHT22;3649;48.798;9.798;2022-11-27T17:01:31;9.80;99.90
7216;DHT22;3649;48.798;9.798;2022-11-27T17:04:00;9.80;99.90
7216;DHT22;3649;48.798;9.798;2022-11-27T17:06:31;9.80;99.90
7216;DHT22;3649;48.798;9.798;2022-11-27T17:09:00;9.90;99.90
7216;DHT22;3649;48.798;9.798;2022-11-27T17:11:30;9.90;99.90
7216;DHT22;3649;48.798;9.798;2022-11-27T17:14:00;9.90;99.90
7216;DHT22;3649;48.798;9.798;2022-11-27T17:16:28;10.00;99.90
7216;DHT22;3649;48.798;9.798;2022-11-27T17:18:55;10.00;99.90
7216;DHT22;3649;48.798;9.798;2022-11-27T17:21:25;9.80;99.90
7216;DHT22;3649;48.798;9.798;2022-11-27T17:23:54;9.90;99.90
7216;DHT22;3649;48.798;9.798;2022-11-27T17:26:22;9.80;99.90
7216;DHT22;3649;48.798;9.798;2022-11-27T17:28:50;9.90;99.90
7216;DHT22;3649;48.798;9.798;2022-11-27T17:31:19;9.80;99.90
7216;DHT22;3649;48.798;9.798;2022-11-27T17:33:47;9.70;99.90
7216;DHT22;3649;48.798;9.798;2022-11-27T17:36:14;9.70;99.90
7216;DHT22;3649;48.798;9.798;2022-11-27T17:38:41;9.70;99.90
7216;DHT22;3649;48.798;9.798;2022-11-27T17:41:10;9.70;99.90
7216;DHT22;3649;48.798;9.798;2022-11-27T17:43:38;9.60;99.90
7216;DHT22;3649;48.798;9.798;2022-11-27T17:46:12;9.80;99.90
7216;DHT22;3649;48.798;9.798;2022-11-27T17:48:41;9.60;99.90
7216;DHT22;3649;48.798;9.798;2022-11-27T17:51:08;9.60;99.90
7216;DHT22;3649;48.798;9.798;2022-11-27T17:53:35;9.50;99.90
7216;DHT22;3649;48.798;9.798;2022-11-27T17:56:04;10.00;99.90
7216;DHT22;3649;48.798;9.798;2022-11-27T17:58:31;9.50;99.90
7216;DHT22;3649;48.798;9.798;2022-11-27T18:00:58;9.70;99.90
7216;DHT22;3649;48.798;9.798;2022-11-27T18:03:27;9.60;99.90
7216;DHT22;3649;48.798;9.798;2022-11-27T18:05:54;9.60;99.90
7216;DHT22;3649;48.798;9.798;2022-11-27T18:08:22;9.60;99.90
7216;DHT22;3649;48.798;9.798;2022-11-27T18:10:49;9.60;99.90
7216;DHT22;3649;48.798;9.798;2022-11-27T18:13:16;9.60;99.90
7216;DHT22;3649;48.798;9.798;2022-11-27T18:15:43;9.60;99.90
7216;DHT22;3649;48.798;9.798;2022-11-27T18:18:10;9.60;99.90
7216;DHT22;3649;48.798;9.798;2022-11-27T18:20:37;9.60;99.90
7216;DHT22;3649;48.798;9.798;2022-11-27T18:23:03;9.50;99.90
7216;DHT22;3649;48.798;9.798;2022-11-27T18:25:30;9.50;99.90
7216;DHT22;3649;48.798;9.798;2022-11-27T18:27:57;9.40;99.90
7216;DHT22;3649;48.798;9.798;2022-11-27T18:30:27;9.40;99.90
7216;DHT22;3649;48.798;9.798;2022-11-27T18:32:54;9.30;99.90
7216;DHT22;3649;48.798;9.798;2022-11-27T18:35:20;9.30;99.90
7216;DHT22;3649;48.798;9.798;2022-11-27T18:37:49;9.20;99.90
7216;DHT22;3649;48.798;9.798;2022-11-27T18:40:16;9.30;99.90